This is the latest recevied weather packets stored in our database for station/object VA7IS. If no packets are shown the sender has not sent any weather packets the latest 10 day(s).
| Time | Temp. | Humidity | Pressure | Rain* | Wind** | Luminosity | Snow |
|---|---|---|---|---|---|---|---|
| 1777817403 | 13.33° C | 56% | 1013.8 hPa | 0 mm | - | - | - |
| 1777816204 | 12.78° C | 58% | 1013.9 hPa | 0 mm | - | - | - |
| 1777814703 | 12.78° C | 58% | 1013.8 hPa | 0 mm | - | - | - |
| 1777814403 | 12.78° C | 58% | 1013.7 hPa | 0 mm | - | - | - |
| 1777809304 | 13.89° C | 57% | 1013.5 hPa | 0 mm | - | - | - |
| 1777808704 | 13.89° C | 58% | 1013.5 hPa | 0 mm | - | - | - |
| 1777808404 | 13.89° C | 58% | 1013.5 hPa | 0 mm | - | - | - |
| 1777806303 | 13.89° C | 58% | 1013.7 hPa | 0 mm | - | - | - |
| 1777802703 | 14.44° C | 57% | 1013.7 hPa | 0 mm | - | - | - |
| 1777802105 | 14.44° C | 58% | 1013.7 hPa | 0 mm | - | - | - |
| 1777800905 | 14.44° C | 58% | 1013.7 hPa | 0 mm | - | - | - |
| 1777798504 | 14.44° C | 57% | 1013.6 hPa | 0 mm | - | - | - |
| 1777796105 | 15° C | 57% | 1013.5 hPa | 0 mm | - | - | - |
| 1777793705 | 15.56° C | 56% | 1013.4 hPa | 0 mm | - | - | - |
| 1777791606 | 15.56° C | 56% | 1013.2 hPa | 0 mm | - | - | - |
| 1777786805 | 16.67° C | 55% | 1012.9 hPa | 0 mm | - | - | - |
| 1777786505 | 16.67° C | 54% | 1012.8 hPa | 0 mm | - | - | - |
| 1777785004 | 16.67° C | 56% | 1012.8 hPa | 0 mm | - | - | - |
| 1777783505 | 17.22° C | 56% | 1012.7 hPa | 0 mm | - | - | - |
| 1777782004 | 17.22° C | 56% | 1012.6 hPa | 0 mm | - | - | - |
| 1777781705 | 17.22° C | 56% | 1012.6 hPa | 0 mm | - | - | - |
| 1777776604 | 19.44° C | 55% | 1012.1 hPa | 0 mm | - | - | - |
| 1777774205 | 21.11° C | 55% | 1012.1 hPa | 0 mm | - | - | - |
| 1777773004 | 21.67° C | 53% | 1012.2 hPa | 0 mm | - | - | - |
| 1777772104 | 22.78° C | 52% | 1012.3 hPa | 0 mm | - | - | - |
* Rain latest hour (hover to see other rain measurements)
** Current wind speed in m/s (hover to see current wind gust speed)